KFATKMEV

Guest
Details From KFAT - Fresno Air Terminal
To KMEV - Minden Tahoe
Flight Number -
Tags generated
Created
Modified
Stats Distance 134 nm / 247 km
Max Altitude 9,000 ft / 2,743 m
Waypoints 3
Social Downloads 0
Likes 0
Share VATSIM

Download

Looking for another format? Having issues loading an existing format? Contact us
Advertisement - Login to hide

Notes

Basic altitude profile: - Ascent Rate: 2500ft/min - Ascent Speed: 250kts - Cruise Altitude: 35000ft - Cruise Speed: 420kts - Descent Rate: 1500ft/min - Descent Speed: 250kts Options: - Use NATs: yes - Use PACOTS: yes - Use low airways: yes - Use high airways: yes

Route

KFAT DARBI KMEV

ID Type Via Altitude Latitude Longitude Leg Dist Tot Dist Heading (true) Name
O KFAT APT - 0 ft / 0 m 36.77651˚ -119.71897˚ - 0 nm - Fresno Air Terminal
DARBI FIX - 9,000 ft / 2,743 m 38.29917˚ -119.73157˚ 91 nm 91 nm 360° / 360° -
O KMEV APT - 0 ft / 0 m 38.99978˚ -119.75050˚ 42 nm 133 nm 359° / 359° Minden Tahoe

Altitude Profile

Advertisement - Login to hide

KFAT

Details ICAO KFAT (FAT)
Name Fresno Air Terminal
Region United States
Timezone America/Los_Angeles (UTC-8.0)
Stats Elevation 335 ft / 102 m (AMSL)
Location 36.776514° -119.718966°
Runways 2
Magnetic Variation 12.831° E

METAR

KFAT 160253Z 30003KT 4SM HZ BKN200 11/03 A3003 RMK AO2 SLP168 T01110033 55004

Decode

TAF

TAF KFAT 152320Z 1600/1624 VRB03KT 4SM HZ OVC200 FM161500 31010G14KT 6SM HZ FEW250 FM162000 32006KT P6SM FEW250

Decode

Departure Runways

ID Width Length Bearing (true) Bearing (mag) Surface Threshold Offset Overrun Length
11L 150 ft / 46 m 9,242 ft / 2,817 m 125.47° 112.64° Asphalt 0 ft / 0 m 1,066 ft / 325 m
11R 150 ft / 46 m 8,010 ft / 2,441 m 125.49° 112.66° Asphalt 0 ft / 0 m 1,001 ft / 305 m
29L 150 ft / 46 m 8,010 ft / 2,441 m 305.50° 292.67° Asphalt 0 ft / 0 m 1,001 ft / 305 m
29R 150 ft / 46 m 9,242 ft / 2,817 m 305.49° 292.66° Asphalt 312 ft / 95 m 850 ft / 259 m

KMEV

Details ICAO KMEV
Name Minden Tahoe
Region United States
Timezone America/Los_Angeles (UTC-8.0)
Stats Elevation 4,726 ft / 1,440 m (AMSL)
Location 38.999784° -119.750505°
Runways 4
Magnetic Variation 13.295° E

METAR

KMEV 160315Z AUTO 00000KT 10SM BKN100 OVC120 03/M08 A3006 RMK AO2

Decode

TAF

Not found

Destination Runways

ID Width Length Bearing (true) Bearing (mag) Surface Threshold Offset Overrun Length
12 75 ft / 23 m 5,305 ft / 1,617 m 134.91° 121.61° Asphalt 0 ft / 0 m 0 ft / 0 m
12L 59 ft / 18 m 2,202 ft / 671 m 135.11° 121.81° Dirt 0 ft / 0 m 0 ft / 0 m
12R 75 ft / 23 m 5,298 ft / 1,615 m 134.91° 121.61° Asphalt 0 ft / 0 m 0 ft / 0 m
16 98 ft / 30 m 7,407 ft / 2,258 m 179.79° 166.49° Asphalt 0 ft / 0 m 0 ft / 0 m
30 75 ft / 23 m 5,305 ft / 1,617 m 314.92° 301.62° Asphalt 0 ft / 0 m 0 ft / 0 m
30L 75 ft / 23 m 5,298 ft / 1,615 m 314.91° 301.61° Asphalt 0 ft / 0 m 0 ft / 0 m
30R 59 ft / 18 m 2,202 ft / 671 m 315.11° 301.81° Dirt 0 ft / 0 m 0 ft / 0 m
34 98 ft / 30 m 7,407 ft / 2,258 m 359.79° 346.49° Asphalt 0 ft / 0 m 0 ft / 0 m